Historique des mesures à Cassis (13260), France
Quotidien Résumé Janvier 20, 2018 Unités:  US    Métrique   Métrique/US
« Précédent (Jour)
Suivant (Jour) »
Quotidien Hebdomadaire Mensuel Annuel Période au choix
  Maximum: Minimum: Moyenne:
Température: 32 °F 47.8 °F 50.5 °F
Point de rosée: 32 °F 29.1 °F 37.8 °F
Humidité: Humidity % 48 % 59 %
Vitesse du vent: WindSpeedKMH mph 0.0 mph 10.8 mph
Rafales: WindSpeedGustKMH mph - -
Vent:- - WSW
Pression: 0 in 29.7 in -
Précipitations: 2.5 in    
Historical Graphs
 
 
Mesures pour : Janvier 20, 2018
Heure Temperature Point de rosée Pression Vent Vitesse du vent Rafales Humidité Pluie (par heure)
32 °F 32 °F 0 in Calm     Humidity % HourlyPrecipMM in
00:12 50.7 °F 36 °F 29.9 in NNW 11.1 mph 16.9 mph 57 % 0.0 in
01:12 50.4 °F 34.9 °F 29.9 in NW 23.8 mph 23.8 mph 55 % 0.0 in
02:12 50.2 °F 33.6 °F 29.9 in NW 12.2 mph 12.2 mph 53 % 0.0 in
03:12 49.8 °F 32.5 °F 29.9 in WNW 29.1 mph 29.1 mph 51 % 0.0 in
04:12 49.1 °F 31.3 °F 29.9 in NNW 22.7 mph 22.7 mph 50 % 0.0 in
05:12 48.7 °F 30.4 °F 29.9 in North 14.0 mph 21.9 mph 49 % 0.0 in
06:12 48.4 °F 29.5 °F 29.9 in WNW 22.4 mph 22.4 mph 48 % 0.0 in
07:12 48 °F 29.1 °F 29.9 in NNW 11.1 mph 12.2 mph 48 % 0.0 in
08:12 47.8 °F 30 °F 30 in NNW 5.0 mph 5.0 mph 50 % 0.0 in
09:12 49.6 °F 31.8 °F 30 in West 14.3 mph 14.3 mph 50 % 0.0 in
10:12 49.8 °F 32.5 °F 30 in North 5.0 mph 7.6 mph 51 % 0.0 in
11:12 50.4 °F 33.4 °F 30 in NW 4.7 mph 4.7 mph 52 % 0.0 in
12:12 51.3 °F 34.7 °F 29.9 in West 8.2 mph 8.2 mph 53 % 0.0 in
13:12 51.3 °F 36 °F 29.9 in Calm   1.8 mph 56 % 0.0 in
14:12 50.9 °F 35.8 °F 29.9 in Calm   5.0 mph 56 % 0.0 in
15:12 51.4 °F 40.5 °F 29.8 in Calm   7.2 mph 66 % 0.0 in
16:12 51.1 °F 43.2 °F 29.8 in Calm     74 % 0.5 in
17:12 52 °F 45.3 °F 29.8 in NW 2.9 mph 14.8 mph 78 % 0.5 in
18:12 53.4 °F 46.8 °F 29.8 in WSW 16.9 mph 20.1 mph 78 % 0.0 in
19:12 54.7 °F 47.1 °F 29.8 in SSW 2.9 mph 8.2 mph 76 % 0.0 in
20:12 55.2 °F 48.4 °F 29.8 in WNW 15.1 mph 28.5 mph 78 % 0.0 in
21:12 55.2 °F 48.7 °F 29.7 in North 8.2 mph 32.8 mph 79 % 0.0 in
22:12 55.2 °F 49.1 °F 29.7 in West 17.7 mph 28.2 mph 80 % 0.0 in
23:12 55.9 °F 49.8 °F 29.7 in WNW 23.0 mph 23.0 mph 80 % 0.0 in
Observations météo à CASSIS
WU-History script by Weather Underground - 1 mb